Skip Navigation Links
NOAA logo - Click to go to the NOAA homepage
NOAA's National Weather Service
Alaska Aviation Weather Unit
  NWS logo - Click to go to the NWS homepage
Left Navbar Graphic     23 AKDT = 07 GMT

   
NOAA is celebrating 200 years of science, service, and stewardship. Visit the NOAA 200th celebration Web site to learn more.
USA.gov is the U.S. Government's official Web portal to all Federal, state and local government Web resources and services.
Facebook
NWS on Facebook

Important Change Regarding the AAWU Web Presence

 

Over the last several months, the AAWU has been working to navigate its webpages to a nationally supported server. Security, as well as other needs, have necessitated the change.  In the process, we have made an effort to enhance the functionality of our website, as well as some of our products. As of June 20, 2017, aawu.arh.noaa.gov will be discontinued. The new AAWU web address is weather.gov/aawu. It is now live and will run in-parallel with the old site until it is discontinued. Please send any feedback or questions regarding the new webpages to nws.ar.aawu.webauthors@noaa.gov.  Thank you for your patience during this time of transition.
AAWU Home :: Display TAF Add Bookmark
TAF CYXY 240538Z 2406/2506 30020G30KT P6SM SCT070 BKN100
      TEMPO 2406/2412 P6SM -SHRA BKN080
      BECMG 2406/2408 18005KT
     FM241800 18012KT P6SM SCT060 RMK
      NXT FCST BY 241200Z=

METAR CYXY 240100Z 32014G21KT 40SM VCSH BKN080TCU BKN120 15/M02 A2974 RMK TCU6AC1 SLP098 DENSITY ALT 3000FT= METAR CYXY 240200Z 34010G17KT 310V040 40SM VCSH SCT080TCU BKN120 15/M02 A2976 RMK TCU4AC2 SLP103 DENSITY ALT 3000FT= METAR CYXY 240300Z 30008KT 40SM SCT080TCU BKN120 15/M03 A2977 RMK TCU4AC2 SLP105 DENSITY ALT 2900FT= METAR CYXY 240400Z 28011G18KT 250V320 40SM SCT080TCU BKN120 13/M00 A2980 RMK TCU4AC2 SLP113 DENSITY ALT 2700FT= METAR CYXY 240500Z 30023G30KT 250V310 30SM -SHRA SCT080TCU BKN120 12/00 A2983 RMK TCU4AC3 SLP122 DENSITY ALT 2600FT= CYXY 240551Z 25007KT 40SM SCT080TCU BKN120 11/02 A2986 RMK TCU4AC3 WSHFT 0519 SLP134 DENSITY ALT 2400FT= METAR CYXY 240600Z 25010KT 40SM SCT080TCU BKN120 11/01 A2987 RMK TCU4AC3 SLP136 DENSITY ALT 2400FT= METAR CYXY 240700Z 26010KT 20SM SCT060TCU BKN120 10/02 A2990 RMK TCU4AC3 SLP144= CYXY 240716Z 26009KT 15SM -SHRA SCT060TCU BKN120 11/01 A2990 RMK TCU4AC3 SLP146=
 Alaska TAF Map

NOAA's National Weather Service
Alaska Aviation Weather Unit
6930 Sand Lake Road
Anchorage, AK 99502-1845
Disclaimer
Credits
Glossary
Privacy Policy
About Us
Career Opportunities
Contact AAWU Internet Services Site last modified: April, 17th 2012